Time;durP1;ratioP1;P1;durP2;ratioP2;P2;SDS_P1;SDS_P2;PMS_P1;PMS_P2;Temp;Humidity;BMP_temperature;BMP_pressure;BME280_temperature;BME280_humidity;BME280_pressure;Samples;Min_cycle;Max_cycle;Signal;HPM_P1;HPM_P2
2023/05/24 00:01:31;;;;;;;;;;;9.70;72.70;;;;;;4107534;28;19964;-86
2023/05/24 00:03:52;;;;;;;;;;;9.70;71.80;;;;;;4110932;28;19918;-85
2023/05/24 00:06:13;;;;;;;;;;;9.70;71.90;;;;;;4111598;28;19918;-87
2023/05/24 00:08:34;;;;;;;;;;;9.60;71.70;;;;;;4110530;28;19921;-85
2023/05/24 00:10:55;;;;;;;;;;;9.60;72.40;;;;;;4109384;28;19929;-86
2023/05/24 00:13:16;;;;;;;;;;;9.60;72.90;;;;;;4106812;28;19921;-85
2023/05/24 00:15:37;;;;;;;;;;;9.60;72.80;;;;;;4110082;28;19926;-85
2023/05/24 00:17:57;;;;;;;;;;;9.60;72.60;;;;;;4107500;28;19914;-85
2023/05/24 00:20:19;;;;;;;;;;;9.60;72.40;;;;;;4111643;28;20005;-86
2023/05/24 00:22:40;;;;;;;;;;;9.60;72.40;;;;;;4110035;28;19918;-88
2023/05/24 00:25:01;;;;;;;;;;;9.60;72.40;;;;;;4106917;28;19982;-86
2023/05/24 00:27:22;;;;;;;;;;;9.60;72.70;;;;;;4107632;28;19928;-86
2023/05/24 00:29:43;;;;;;;;;;;9.70;72.70;;;;;;4111037;28;19922;-88
2023/05/24 00:32:04;;;;;;;;;;;9.60;72.50;;;;;;4107125;28;19921;-86
2023/05/24 00:34:25;;;;;;;;;;;9.60;72.80;;;;;;4107435;28;19922;-87
2023/05/24 00:36:46;;;;;;;;;;;9.60;72.50;;;;;;4107752;28;19926;-88
2023/05/24 00:39:06;;;;;;;;;;;9.60;72.80;;;;;;4112868;28;20350;-85
2023/05/24 00:41:30;;;;;;;;;;;9.60;72.80;;;;;;4115536;28;19972;-88
2023/05/24 00:43:51;;;;;;;;;;;9.60;73.00;;;;;;4100007;28;19971;-87
2023/05/24 00:46:17;;;;;;;;;;;9.60;72.80;;;;;;4108880;28;20328;-86
2023/05/24 00:48:38;;;;;;;;;;;9.70;72.80;;;;;;4106230;28;19933;-87
2023/05/24 00:50:59;;;;;;;;;;;9.60;72.70;;;;;;4115027;28;19906;-86
2023/05/24 00:53:20;;;;;;;;;;;9.70;72.80;;;;;;4109984;28;19914;-86
2023/05/24 00:55:41;;;;;;;;;;;9.60;72.90;;;;;;4113131;28;19976;-86
2023/05/24 00:58:02;;;;;;;;;;;9.60;72.90;;;;;;4114045;28;19922;-84
2023/05/24 01:00:23;;;;;;;;;;;9.70;73.30;;;;;;4122124;28;19928;-86
2023/05/24 01:02:46;;;;;;;;;;;9.60;73.30;;;;;;4111113;28;19925;-86
2023/05/24 01:05:07;;;;;;;;;;;9.70;73.20;;;;;;4109175;28;19914;-86
2023/05/24 01:07:28;;;;;;;;;;;9.60;73.50;;;;;;4109170;28;20002;-85
2023/05/24 01:09:58;;;;;;;;;;;9.60;73.50;;;;;;4110789;28;19985;-86
2023/05/24 01:12:19;;;;;;;;;;;9.70;73.60;;;;;;4104193;28;19925;-85
2023/05/24 01:14:57;;;;;;;;;;;9.60;73.50;;;;;;4104842;28;20354;-88
2023/05/24 01:17:19;;;;;;;;;;;9.60;73.80;;;;;;4106354;28;19955;-86
2023/05/24 01:19:47;;;;;;;;;;;9.60;73.70;;;;;;4112257;28;19919;-86
2023/05/24 01:22:27;;;;;;;;;;;9.60;73.50;;;;;;4119562;28;21263;-88
2023/05/24 01:25:07;;;;;;;;;;;9.60;73.70;;;;;;4109467;28;19921;-86
2023/05/24 01:27:29;;;;;;;;;;;9.60;73.70;;;;;;4123204;28;19921;-85
2023/05/24 01:29:52;;;;;;;;;;;9.60;73.50;;;;;;4110930;28;19926;-86
2023/05/24 01:32:13;;;;;;;;;;;9.60;73.50;;;;;;4108585;28;20025;-87
2023/05/24 01:34:34;;;;;;;;;;;9.60;73.50;;;;;;4118497;28;19914;-86
2023/05/24 01:36:54;;;;;;;;;;;9.60;73.60;;;;;;4116264;28;20394;-86
2023/05/24 01:39:16;;;;;;;;;;;9.60;73.70;;;;;;4107255;28;19921;-86
2023/05/24 01:41:46;;;;;;;;;;;9.60;73.50;;;;;;4110805;28;19918;-86
2023/05/24 01:44:14;;;;;;;;;;;9.60;73.70;;;;;;4106302;28;19942;-85
2023/05/24 01:46:36;;;;;;;;;;;9.60;73.60;;;;;;4105776;28;20295;-89
2023/05/24 01:48:57;;;;;;;;;;;9.60;73.80;;;;;;4103597;28;20092;-86
2023/05/24 01:51:21;;;;;;;;;;;9.60;73.70;;;;;;4114947;28;20176;-85
2023/05/24 01:53:45;;;;;;;;;;;9.60;73.50;;;;;;4109281;28;19961;-85
2023/05/24 01:56:06;;;;;;;;;;;9.60;73.70;;;;;;4113547;28;20177;-88
2023/05/24 01:58:30;;;;;;;;;;;9.70;74.10;;;;;;4112714;28;19914;-85
2023/05/24 02:00:51;;;;;;;;;;;9.70;73.80;;;;;;4110650;28;19968;-85
2023/05/24 02:03:13;;;;;;;;;;;9.70;73.80;;;;;;4109907;28;19989;-86
2023/05/24 02:05:34;;;;;;;;;;;9.70;73.90;;;;;;4111609;28;19918;-87
2023/05/24 02:07:55;;;;;;;;;;;9.60;73.90;;;;;;4120678;28;20434;-87
2023/05/24 02:10:16;;;;;;;;;;;9.70;74.20;;;;;;4113024;28;19922;-85
2023/05/24 02:12:37;;;;;;;;;;;9.70;74.10;;;;;;4111446;28;20041;-85
2023/05/24 02:14:58;;;;;;;;;;;9.70;74.10;;;;;;4114938;28;19977;-87
2023/05/24 02:17:19;;;;;;;;;;;9.70;74.00;;;;;;4111599;28;19937;-89
2023/05/24 02:19:40;;;;;;;;;;;9.70;73.90;;;;;;4111009;28;19918;-86
2023/05/24 02:22:02;;;;;;;;;;;9.70;74.20;;;;;;4121028;28;19918;-86
2023/05/24 02:24:23;;;;;;;;;;;9.70;74.30;;;;;;4110235;28;19914;-85
2023/05/24 02:26:44;;;;;;;;;;;9.70;74.20;;;;;;4108710;28;19925;-86
2023/05/24 02:29:04;;;;;;;;;;;9.70;74.20;;;;;;4112835;28;20000;-86
2023/05/24 02:31:27;;;;;;;;;;;9.70;74.30;;;;;;4114434;28;19926;-87
2023/05/24 02:33:48;;;;;;;;;;;9.70;74.10;;;;;;4112033;28;20011;-87
2023/05/24 02:36:09;;;;;;;;;;;9.70;74.20;;;;;;4110569;28;20237;-87
2023/05/24 02:38:31;;;;;;;;;;;9.80;74.30;;;;;;4113307;28;19921;-88
2023/05/24 02:40:51;;;;;;;;;;;9.80;74.20;;;;;;4108619;28;20388;-87
2023/05/24 02:43:12;;;;;;;;;;;9.80;74.20;;;;;;4108614;28;19918;-85
2023/05/24 02:45:35;;;;;;;;;;;9.70;74.20;;;;;;4110359;28;19925;-86
2023/05/24 02:47:56;;;;;;;;;;;9.80;74.20;;;;;;4113250;28;20196;-86
2023/05/24 02:50:17;;;;;;;;;;;9.70;74.20;;;;;;4108055;28;20373;-87
2023/05/24 02:52:38;;;;;;;;;;;9.70;74.60;;;;;;4108515;28;19969;-85
2023/05/24 02:54:58;;;;;;;;;;;9.70;74.30;;;;;;4119759;28;19922;-86
2023/05/24 02:57:19;;;;;;;;;;;9.70;74.20;;;;;;4124836;28;19968;-88
2023/05/24 02:59:40;;;;;;;;;;;9.70;74.40;;;;;;4116411;28;19925;-85
2023/05/24 03:02:01;;;;;;;;;;;9.70;74.20;;;;;;4116750;28;19922;-86
2023/05/24 03:04:22;;;;;;;;;;;9.70;74.20;;;;;;4112534;28;19914;-85
2023/05/24 03:06:43;;;;;;;;;;;9.80;74.30;;;;;;4107264;28;19926;-85
2023/05/24 03:09:04;;;;;;;;;;;9.80;74.50;;;;;;4105960;28;19998;-86
2023/05/24 03:11:25;;;;;;;;;;;9.80;74.60;;;;;;4111401;28;20176;-86
2023/05/24 03:13:46;;;;;;;;;;;9.80;74.30;;;;;;4109230;28;20411;-87
2023/05/24 03:16:07;;;;;;;;;;;9.80;74.40;;;;;;4107340;28;19933;-88
2023/05/24 03:18:28;;;;;;;;;;;9.80;74.40;;;;;;4109072;28;20227;-87
2023/05/24 03:20:49;;;;;;;;;;;9.80;74.40;;;;;;4106483;28;20376;-87
2023/05/24 03:23:10;;;;;;;;;;;9.80;74.40;;;;;;4110338;28;19937;-86
2023/05/24 03:25:31;;;;;;;;;;;9.80;74.30;;;;;;4115146;28;20323;-86
2023/05/24 03:27:52;;;;;;;;;;;9.90;74.40;;;;;;4111503;28;19918;-85
2023/05/24 03:30:13;;;;;;;;;;;9.80;74.40;;;;;;4110461;28;20443;-89
2023/05/24 03:32:34;;;;;;;;;;;9.80;74.40;;;;;;4108871;28;19959;-85
2023/05/24 03:34:56;;;;;;;;;;;9.90;74.50;;;;;;4110336;28;19969;-88
2023/05/24 03:37:17;;;;;;;;;;;9.90;74.50;;;;;;4110433;28;20304;-85
2023/05/24 03:39:38;;;;;;;;;;;9.80;74.50;;;;;;4108600;28;19946;-86
2023/05/24 03:41:58;;;;;;;;;;;9.90;74.60;;;;;;4109373;28;19936;-86
2023/05/24 03:44:19;;;;;;;;;;;9.80;74.40;;;;;;4108417;28;20291;-86
2023/05/24 03:46:40;;;;;;;;;;;9.90;74.60;;;;;;4120100;28;19917;-86
2023/05/24 03:49:01;;;;;;;;;;;9.90;74.50;;;;;;4112337;28;20620;-85
2023/05/24 03:51:28;;;;;;;;;;;9.90;74.60;;;;;;4110540;28;19922;-88
2023/05/24 03:53:49;;;;;;;;;;;9.90;74.50;;;;;;4107730;28;19946;-86
2023/05/24 03:56:09;;;;;;;;;;;9.90;74.60;;;;;;4109768;28;20363;-86
2023/05/24 03:58:30;;;;;;;;;;;9.90;74.90;;;;;;4115280;28;20462;-86
2023/05/24 04:00:51;;;;;;;;;;;10.00;74.70;;;;;;4112873;28;19934;-86
2023/05/24 04:03:13;;;;;;;;;;;9.90;74.60;;;;;;4109428;28;19914;-85
2023/05/24 04:05:34;;;;;;;;;;;9.90;74.80;;;;;;4106965;28;20376;-85
2023/05/24 04:07:55;;;;;;;;;;;9.90;74.60;;;;;;4111101;28;19914;-88
2023/05/24 04:10:16;;;;;;;;;;;9.90;74.70;;;;;;4109162;28;19922;-85
2023/05/24 04:12:37;;;;;;;;;;;9.90;74.70;;;;;;4104355;28;20402;-87
2023/05/24 04:15:01;;;;;;;;;;;9.90;74.60;;;;;;4109732;28;19914;-86
2023/05/24 04:17:25;;;;;;;;;;;9.90;74.60;;;;;;4106318;28;19926;-85
2023/05/24 04:19:46;;;;;;;;;;;9.90;74.50;;;;;;4111103;28;19969;-86
2023/05/24 04:22:07;;;;;;;;;;;9.90;74.50;;;;;;4111847;28;19926;-87
2023/05/24 04:24:28;;;;;;;;;;;9.90;74.60;;;;;;4113709;28;19918;-86
2023/05/24 04:26:50;;;;;;;;;;;10.00;74.60;;;;;;4108145;28;20359;-89
2023/05/24 04:29:11;;;;;;;;;;;10.00;74.70;;;;;;4118582;28;20423;-86
2023/05/24 04:31:33;;;;;;;;;;;10.00;74.80;;;;;;4113480;28;19922;-86
2023/05/24 04:33:54;;;;;;;;;;;10.00;74.70;;;;;;4111548;28;19921;-85
2023/05/24 04:36:16;;;;;;;;;;;10.00;74.60;;;;;;4113895;28;19937;-86
2023/05/24 04:38:37;;;;;;;;;;;10.10;74.70;;;;;;4120627;28;19914;-88
2023/05/24 04:40:58;;;;;;;;;;;10.10;74.90;;;;;;4107883;28;19980;-85
2023/05/24 04:43:19;;;;;;;;;;;10.00;74.90;;;;;;4109628;28;20185;-87
2023/05/24 04:45:40;;;;;;;;;;;10.00;75.00;;;;;;4110928;28;19929;-86
2023/05/24 04:48:01;;;;;;;;;;;10.10;75.10;;;;;;4105812;28;19949;-86
2023/05/24 04:50:24;;;;;;;;;;;10.10;75.80;;;;;;4112563;28;20278;-85
2023/05/24 04:52:48;;;;;;;;;;;10.00;75.10;;;;;;4113475;28;19921;-85
2023/05/24 04:55:09;;;;;;;;;;;10.10;75.20;;;;;;4105552;28;19929;-85
2023/05/24 04:57:30;;;;;;;;;;;10.10;75.00;;;;;;4107624;28;19985;-88
2023/05/24 04:59:51;;;;;;;;;;;10.10;75.30;;;;;;4110725;28;20364;-85
2023/05/24 05:02:12;;;;;;;;;;;10.10;75.40;;;;;;4110026;28;20291;-86
2023/05/24 05:04:32;;;;;;;;;;;10.10;75.20;;;;;;4108979;28;19918;-86
2023/05/24 05:06:54;;;;;;;;;;;10.10;75.30;;;;;;4110382;28;19914;-86
2023/05/24 05:09:16;;;;;;;;;;;10.20;75.40;;;;;;4109395;28;19954;-86
2023/05/24 05:11:37;;;;;;;;;;;10.20;75.50;;;;;;4110725;28;19929;-88
2023/05/24 05:13:58;;;;;;;;;;;10.30;75.70;;;;;;4107448;28;19918;-85
2023/05/24 05:16:19;;;;;;;;;;;10.20;75.50;;;;;;4122959;28;20388;-86
2023/05/24 05:18:40;;;;;;;;;;;10.20;75.70;;;;;;4110430;28;19918;-87
2023/05/24 05:21:01;;;;;;;;;;;10.30;75.70;;;;;;4111105;28;20012;-86
2023/05/24 05:23:27;;;;;;;;;;;10.20;76.00;;;;;;4122404;28;19914;-88
2023/05/24 05:25:51;;;;;;;;;;;10.30;75.80;;;;;;4114404;28;19918;-86
2023/05/24 05:28:31;;;;;;;;;;;10.30;75.90;;;;;;4106288;28;19922;-86
2023/05/24 05:30:52;;;;;;;;;;;10.30;76.10;;;;;;4120348;28;19916;-90
2023/05/24 05:33:18;;;;;;;;;;;10.30;76.00;;;;;;4126143;28;19930;-90
2023/05/24 05:35:40;;;;;;;;;;;10.20;76.00;;;;;;4128218;28;19918;-91
2023/05/24 05:38:08;;;;;;;;;;;10.30;76.00;;;;;;4125999;28;19970;-91
2023/05/24 05:40:29;;;;;;;;;;;10.30;75.90;;;;;;4129566;28;19925;-91
2023/05/24 05:42:50;;;;;;;;;;;10.30;75.80;;;;;;4123985;28;19970;-91
2023/05/24 05:45:11;;;;;;;;;;;10.30;75.80;;;;;;4106921;28;19950;-87
2023/05/24 05:47:37;;;;;;;;;;;10.30;76.10;;;;;;4107160;28;20033;-87
2023/05/24 05:49:58;;;;;;;;;;;10.30;76.00;;;;;;4107374;28;19925;-88
2023/05/24 05:52:19;;;;;;;;;;;10.30;76.00;;;;;;4108630;28;20447;-88
2023/05/24 05:54:42;;;;;;;;;;;10.40;75.80;;;;;;4106040;28;20293;-86
2023/05/24 05:57:04;;;;;;;;;;;10.30;76.00;;;;;;4122666;28;20033;-86
2023/05/24 05:59:25;;;;;;;;;;;10.40;76.00;;;;;;4104997;28;20005;-85
2023/05/24 06:01:47;;;;;;;;;;;10.40;75.90;;;;;;4107580;28;20029;-88
2023/05/24 06:04:09;;;;;;;;;;;10.40;75.90;;;;;;4101520;28;19914;-87
2023/05/24 06:06:30;;;;;;;;;;;10.50;76.20;;;;;;4101119;28;19973;-87
2023/05/24 06:08:51;;;;;;;;;;;10.40;76.10;;;;;;4106362;28;20371;-88
2023/05/24 06:11:12;;;;;;;;;;;10.50;76.10;;;;;;4117015;28;19926;-88
2023/05/24 06:13:33;;;;;;;;;;;10.50;76.00;;;;;;4102291;28;19965;-86
2023/05/24 06:15:53;;;;;;;;;;;10.50;76.20;;;;;;4101936;28;20408;-88
2023/05/24 06:18:14;;;;;;;;;;;10.50;76.10;;;;;;4103301;28;19942;-87
2023/05/24 06:20:38;;;;;;;;;;;10.50;76.20;;;;;;4103128;28;19960;-87
2023/05/24 06:23:00;;;;;;;;;;;10.60;76.20;;;;;;4119195;28;20399;-85
2023/05/24 06:25:26;;;;;;;;;;;10.60;76.10;;;;;;4109391;28;19945;-89
2023/05/24 06:27:47;;;;;;;;;;;10.60;76.00;;;;;;4104017;28;19968;-90
2023/05/24 06:30:11;;;;;;;;;;;10.70;76.00;;;;;;4109540;28;20304;-88
2023/05/24 06:32:32;;;;;;;;;;;10.70;76.10;;;;;;4105970;28;19918;-88
2023/05/24 06:34:53;;;;;;;;;;;10.70;76.10;;;;;;4109559;28;20395;-90
2023/05/24 06:37:14;;;;;;;;;;;10.60;76.20;;;;;;4109922;28;19922;-87
2023/05/24 06:39:36;;;;;;;;;;;10.70;76.10;;;;;;4106988;28;19910;-88
2023/05/24 06:41:57;;;;;;;;;;;10.80;76.30;;;;;;4110046;28;19942;-87
2023/05/24 06:44:22;;;;;;;;;;;10.80;76.20;;;;;;4107901;28;20226;-91
2023/05/24 06:46:43;;;;;;;;;;;10.90;76.20;;;;;;4108138;28;20026;-87
2023/05/24 06:49:07;;;;;;;;;;;11.00;76.20;;;;;;4108838;28;20373;-89
2023/05/24 06:51:28;;;;;;;;;;;11.00;76.50;;;;;;4119256;28;20541;-91
2023/05/24 06:53:49;;;;;;;;;;;11.00;76.50;;;;;;4110459;28;20307;-89
2023/05/24 06:56:10;;;;;;;;;;;11.10;76.50;;;;;;4108316;28;20331;-89
2023/05/24 06:58:31;;;;;;;;;;;11.20;76.30;;;;;;4107099;28;19961;-88
2023/05/24 07:00:54;;;;;;;;;;;11.20;76.10;;;;;;4101317;28;19915;-90
2023/05/24 07:03:15;;;;;;;;;;;11.30;76.10;;;;;;4108064;28;19984;-87
2023/05/24 07:05:44;;;;;;;;;;;11.30;76.10;;;;;;4110974;28;19914;-87
2023/05/24 07:08:05;;;;;;;;;;;11.30;76.00;;;;;;4108451;28;19918;-88
2023/05/24 07:10:26;;;;;;;;;;;11.30;75.90;;;;;;4102250;28;19993;-88
2023/05/24 07:12:47;;;;;;;;;;;11.40;76.70;;;;;;4111018;28;20021;-89
2023/05/24 07:15:08;;;;;;;;;;;11.40;76.00;;;;;;4109714;28;19922;-89
2023/05/24 07:17:30;;;;;;;;;;;11.40;75.80;;;;;;4110182;28;19940;-90
2023/05/24 07:19:51;;;;;;;;;;;11.50;75.80;;;;;;4108499;28;20395;-88
2023/05/24 07:22:17;;;;;;;;;;;11.50;75.70;;;;;;4111609;28;19922;-88
2023/05/24 07:24:38;;;;;;;;;;;11.60;75.80;;;;;;4112674;28;19925;-89
2023/05/24 07:27:00;;;;;;;;;;;11.70;75.90;;;;;;4118586;28;19917;-89
2023/05/24 07:29:21;;;;;;;;;;;11.60;75.90;;;;;;4111000;28;19918;-89
2023/05/24 07:31:42;;;;;;;;;;;11.70;76.00;;;;;;4109632;28;20355;-88
2023/05/24 07:34:03;;;;;;;;;;;11.70;75.90;;;;;;4111793;28;19918;-88
2023/05/24 07:36:24;;;;;;;;;;;11.70;75.80;;;;;;4110163;28;19992;-88
2023/05/24 07:38:45;;;;;;;;;;;11.80;75.80;;;;;;4109646;28;19919;-89
2023/05/24 07:41:06;;;;;;;;;;;11.80;75.80;;;;;;4118948;28;19910;-91
2023/05/24 07:43:27;;;;;;;;;;;11.90;76.00;;;;;;4128328;28;19922;-91
2023/05/24 07:45:48;;;;;;;;;;;11.90;75.80;;;;;;4124875;28;19946;-92
2023/05/24 07:48:09;;;;;;;;;;;12.00;75.90;;;;;;4113888;28;19914;-89
2023/05/24 07:50:31;;;;;;;;;;;12.00;75.80;;;;;;4110746;28;19991;-88
2023/05/24 07:52:51;;;;;;;;;;;12.10;75.80;;;;;;4107279;28;20296;-89
2023/05/24 07:55:13;;;;;;;;;;;12.10;75.40;;;;;;4109094;28;19934;-88
2023/05/24 07:57:34;;;;;;;;;;;12.10;75.20;;;;;;4112806;28;19980;-90
2023/05/24 07:59:55;;;;;;;;;;;12.20;76.00;;;;;;4107593;28;19914;-88
2023/05/24 08:02:16;;;;;;;;;;;12.20;75.20;;;;;;4107615;28;20209;-89
2023/05/24 08:04:37;;;;;;;;;;;12.30;75.10;;;;;;4108205;28;19957;-89
2023/05/24 08:07:00;;;;;;;;;;;12.30;75.00;;;;;;4108435;28;19918;-89
2023/05/24 08:09:21;;;;;;;;;;;12.50;75.10;;;;;;4115594;28;19911;-89
2023/05/24 08:11:42;;;;;;;;;;;12.40;74.70;;;;;;4109566;28;20327;-88
2023/05/24 08:14:03;;;;;;;;;;;12.50;74.70;;;;;;4121559;28;19956;-88
2023/05/24 08:16:24;;;;;;;;;;;12.60;74.70;;;;;;4105426;28;20197;-88
2023/05/24 08:18:45;;;;;;;;;;;12.60;74.60;;;;;;4100365;28;19915;-89
2023/05/24 08:21:09;;;;;;;;;;;12.70;74.70;;;;;;4108549;28;19915;-88
2023/05/24 08:23:30;;;;;;;;;;;12.70;74.60;;;;;;4110499;28;19922;-88
2023/05/24 08:25:52;;;;;;;;;;;12.80;74.50;;;;;;4110717;28;19918;-90
2023/05/24 08:28:13;;;;;;;;;;;12.80;74.50;;;;;;4113686;28;19909;-88
2023/05/24 08:30:34;;;;;;;;;;;12.90;74.60;;;;;;4107848;28;19944;-86
2023/05/24 08:32:54;;;;;;;;;;;13.00;74.70;;;;;;4108452;28;20280;-87
2023/05/24 08:35:15;;;;;;;;;;;13.10;74.40;;;;;;4109657;28;19962;-89
2023/05/24 08:37:36;;;;;;;;;;;13.10;74.30;;;;;;4103095;28;19957;-86
2023/05/24 08:39:57;;;;;;;;;;;13.20;74.00;;;;;;4109187;28;19918;-87
2023/05/24 08:42:20;;;;;;;;;;;13.10;73.60;;;;;;4108631;28;19940;-88
2023/05/24 08:44:46;;;;;;;;;;;13.20;73.70;;;;;;4103041;28;19938;-88
2023/05/24 08:47:08;;;;;;;;;;;13.30;73.40;;;;;;4101933;28;20441;-87
2023/05/24 08:49:29;;;;;;;;;;;13.30;73.00;;;;;;4101893;28;19918;-87
2023/05/24 08:51:50;;;;;;;;;;;13.40;72.70;;;;;;4106354;28;19926;-86
2023/05/24 08:54:12;;;;;;;;;;;13.40;73.00;;;;;;4106219;28;19922;-85
2023/05/24 08:56:33;;;;;;;;;;;13.50;72.30;;;;;;4106478;28;19918;-87
2023/05/24 08:58:54;;;;;;;;;;;13.60;72.50;;;;;;4106516;28;19965;-86
2023/05/24 09:01:16;;;;;;;;;;;13.60;72.20;;;;;;4114053;28;19917;-85
2023/05/24 09:03:37;;;;;;;;;;;13.70;72.30;;;;;;4106117;28;20419;-86
2023/05/24 09:05:59;;;;;;;;;;;13.80;72.50;;;;;;4104741;28;20045;-86
2023/05/24 09:08:21;;;;;;;;;;;13.90;72.20;;;;;;4104259;28;19918;-86
2023/05/24 09:10:42;;;;;;;;;;;13.90;72.10;;;;;;4105430;28;19922;-90
2023/05/24 09:13:04;;;;;;;;;;;14.00;72.00;;;;;;4104983;28;19922;-86
2023/05/24 09:15:25;;;;;;;;;;;14.00;71.40;;;;;;4103052;28;19940;-89
2023/05/24 09:17:46;;;;;;;;;;;14.10;71.60;;;;;;4104502;28;19914;-87
2023/05/24 09:20:09;;;;;;;;;;;14.10;71.50;;;;;;4105524;28;19920;-86
2023/05/24 09:22:32;;;;;;;;;;;14.20;71.10;;;;;;4105286;28;19922;-88
2023/05/24 09:24:59;;;;;;;;;;;14.30;71.30;;;;;;4103290;28;19930;-85
2023/05/24 09:27:21;;;;;;;;;;;14.30;71.10;;;;;;4104364;28;19953;-87
2023/05/24 09:29:44;;;;;;;;;;;14.40;71.00;;;;;;4107533;28;19918;-88
2023/05/24 09:32:08;;;;;;;;;;;14.50;70.70;;;;;;4105151;28;19918;-87
2023/05/24 09:34:37;;;;;;;;;;;14.60;70.70;;;;;;4101839;28;20499;-86
2023/05/24 09:36:58;;;;;;;;;;;14.60;70.20;;;;;;4107095;28;20203;-87
2023/05/24 09:39:19;;;;;;;;;;;14.80;70.10;;;;;;4111558;28;19947;-88
2023/05/24 09:41:42;;;;;;;;;;;14.90;69.90;;;;;;4103985;28;19925;-86
2023/05/24 09:44:04;;;;;;;;;;;14.90;69.50;;;;;;4102182;28;19926;-86
2023/05/24 09:46:25;;;;;;;;;;;15.00;69.20;;;;;;4111090;28;19914;-87
2023/05/24 09:48:56;;;;;;;;;;;15.00;68.90;;;;;;4107775;28;20380;-86
2023/05/24 09:51:17;;;;;;;;;;;15.10;69.10;;;;;;4102949;28;20249;-88
2023/05/24 09:53:43;;;;;;;;;;;15.10;68.90;;;;;;4101292;28;19930;-85
2023/05/24 09:56:04;;;;;;;;;;;15.30;69.80;;;;;;4094221;28;20447;-87
2023/05/24 09:58:35;;;;;;;;;;;15.20;68.90;;;;;;4107531;28;20638;-87
2023/05/24 10:01:02;;;;;;;;;;;15.30;68.60;;;;;;4117130;28;19929;-87
2023/05/24 10:03:23;;;;;;;;;;;15.40;68.10;;;;;;4105996;28;19941;-84
2023/05/24 10:05:54;;;;;;;;;;;15.40;68.00;;;;;;4111573;28;19918;-89
2023/05/24 10:08:15;;;;;;;;;;;15.50;67.70;;;;;;4122683;28;19937;-87
2023/05/24 10:10:35;;;;;;;;;;;15.50;67.90;;;;;;4105543;28;19969;-86
2023/05/24 10:12:57;;;;;;;;;;;15.50;67.30;;;;;;4126852;28;19918;-87
2023/05/24 10:15:18;;;;;;;;;;;15.60;67.60;;;;;;4109346;28;20369;-85
2023/05/24 10:17:39;;;;;;;;;;;15.70;67.90;;;;;;4105896;28;19918;-88
2023/05/24 10:20:01;;;;;;;;;;;15.70;66.60;;;;;;4103099;28;19922;-87
2023/05/24 10:22:23;;;;;;;;;;;15.80;67.20;;;;;;4107453;28;19950;-86
2023/05/24 10:24:49;;;;;;;;;;;15.80;67.00;;;;;;4123610;28;20364;-88
2023/05/24 10:27:12;;;;;;;;;;;15.90;66.80;;;;;;4109296;28;21081;-87
2023/05/24 10:29:45;;;;;;;;;;;16.00;66.60;;;;;;4110875;28;20300;-90
2023/05/24 10:32:07;;;;;;;;;;;16.00;66.60;;;;;;4111491;28;20303;-86
2023/05/24 10:34:29;;;;;;;;;;;16.10;65.70;;;;;;4108613;28;19957;-86
2023/05/24 10:36:50;;;;;;;;;;;16.20;66.30;;;;;;4118154;28;19921;-88
2023/05/24 10:39:11;;;;;;;;;;;16.30;65.90;;;;;;4108149;28;20455;-87
2023/05/24 10:41:40;;;;;;;;;;;16.40;65.80;;;;;;4111363;28;19922;-88
2023/05/24 10:44:01;;;;;;;;;;;16.40;66.20;;;;;;4104683;28;20030;-85
2023/05/24 10:46:22;;;;;;;;;;;16.50;65.90;;;;;;4124549;28;20706;-86
2023/05/24 10:48:43;;;;;;;;;;;16.60;65.60;;;;;;4117732;28;20028;-88
2023/05/24 10:51:23;;;;;;;;;;;16.70;64.60;;;;;;4107507;28;20005;-86
2023/05/24 10:53:44;;;;;;;;;;;16.80;63.80;;;;;;4119263;28;20504;-88
2023/05/24 10:56:08;;;;;;;;;;;16.80;63.90;;;;;;4146191;23;19934;-87
2023/05/24 10:58:57;;;;;;;;;;;16.80;63.40;;;;;;4126514;28;19921;-87
2023/05/24 11:01:28;;;;;;;;;;;16.90;63.80;;;;;;4121416;28;19981;-88
2023/05/24 11:03:49;;;;;;;;;;;16.90;63.50;;;;;;4125550;28;19921;-88
2023/05/24 11:06:10;;;;;;;;;;;16.90;62.00;;;;;;4114987;28;20380;-87
2023/05/24 11:08:32;;;;;;;;;;;17.00;63.10;;;;;;4117725;28;20290;-87
2023/05/24 11:11:05;;;;;;;;;;;17.00;59.30;;;;;;4118728;28;19926;-88
2023/05/24 11:13:26;;;;;;;;;;;17.00;57.60;;;;;;4103657;28;20723;-87
2023/05/24 11:15:50;;;;;;;;;;;17.10;60.00;;;;;;4106099;28;19952;-86
2023/05/24 11:18:14;;;;;;;;;;;17.10;60.80;;;;;;4110005;28;20352;-85
2023/05/24 11:20:36;;;;;;;;;;;17.10;61.20;;;;;;4106298;28;19918;-88
2023/05/24 11:22:58;;;;;;;;;;;17.10;61.10;;;;;;4105331;28;20005;-87
2023/05/24 11:25:22;;;;;;;;;;;17.10;61.10;;;;;;4118408;28;20331;-86
2023/05/24 11:27:44;;;;;;;;;;;17.10;61.30;;;;;;4110898;28;19949;-88
2023/05/24 11:30:12;;;;;;;;;;;17.20;61.60;;;;;;4111212;28;22165;-86
2023/05/24 11:32:33;;;;;;;;;;;17.20;61.60;;;;;;4123399;28;19989;-89
2023/05/24 11:34:55;;;;;;;;;;;17.30;61.90;;;;;;4141330;28;19978;-91
2023/05/24 11:37:15;;;;;;;;;;;17.30;61.80;;;;;;4143536;28;19922;-90
2023/05/24 11:46:11;;;;;;;;;;;17.40;60.30;;;;;;4538656;22;19944;-87
2023/05/24 11:48:33;;;;;;;;;;;17.40;60.50;;;;;;4144268;28;20380;-88
2023/05/24 11:54:12;;;;;;;;;;;17.60;60.20;;;;;;4131486;28;19933;-90
2023/05/24 11:59:36;;;;;;;;;;;17.60;59.90;;;;;;4082438;28;19929;-88
2023/05/24 12:04:53;;;;;;;;;;;17.70;59.70;;;;;;4093591;28;20123;-87
2023/05/24 12:07:15;;;;;;;;;;;17.80;60.00;;;;;;4086298;28;19942;-90
2023/05/24 12:12:45;;;;;;;;;;;17.90;60.10;;;;;;4079485;28;19945;-88
2023/05/24 12:15:06;;;;;;;;;;;18.00;60.10;;;;;;4091776;28;19945;-87
2023/05/24 12:17:57;;;;;;;;;;;18.00;58.70;;;;;;4074948;29;19939;-89
2023/05/24 12:20:55;;;;;;;;;;;18.10;59.60;;;;;;4091793;29;19950;-91
2023/05/24 12:23:20;;;;;;;;;;;18.20;57.40;;;;;;4089494;28;19929;-90
2023/05/24 12:25:43;;;;;;;;;;;18.20;58.60;;;;;;4231265;23;19921;-91
2023/05/24 12:28:45;;;;;;;;;;;18.30;58.90;;;;;;4123262;28;19918;-88
2023/05/24 12:31:07;;;;;;;;;;;18.30;59.00;;;;;;4075772;29;20053;-90
2023/05/24 12:33:29;;;;;;;;;;;18.30;57.60;;;;;;4070028;28;19926;-89
2023/05/24 12:35:50;;;;;;;;;;;18.40;58.10;;;;;;4070452;29;19954;-91
2023/05/24 12:38:11;;;;;;;;;;;18.40;58.50;;;;;;4072347;29;19955;-89
2023/05/24 12:40:32;;;;;;;;;;;18.50;58.50;;;;;;4070769;29;19942;-87
2023/05/24 12:42:55;;;;;;;;;;;18.50;58.60;;;;;;4074997;29;19918;-90
2023/05/24 12:45:21;;;;;;;;;;;18.70;58.30;;;;;;4053930;29;19915;-87
2023/05/24 12:47:42;;;;;;;;;;;18.70;55.50;;;;;;4076788;28;19919;-89
2023/05/24 12:50:03;;;;;;;;;;;18.80;54.20;;;;;;4057965;29;20400;-89
2023/05/24 12:52:24;;;;;;;;;;;18.80;52.90;;;;;;4070210;29;19919;-92
2023/05/24 12:54:45;;;;;;;;;;;18.80;52.70;;;;;;4075332;29;20115;-89
2023/05/24 12:57:06;;;;;;;;;;;18.80;52.90;;;;;;4070651;29;19922;-89
2023/05/24 12:59:32;;;;;;;;;;;18.70;53.20;;;;;;4067861;29;19975;-90
2023/05/24 13:01:53;;;;;;;;;;;18.70;52.20;;;;;;4056795;29;19922;-88
2023/05/24 13:04:14;;;;;;;;;;;18.70;52.00;;;;;;4060767;29;19926;-87
2023/05/24 13:06:36;;;;;;;;;;;18.60;52.20;;;;;;4076578;29;19926;-88
2023/05/24 13:08:57;;;;;;;;;;;18.60;51.60;;;;;;4117787;28;19966;-89
2023/05/24 13:11:18;;;;;;;;;;;18.50;52.30;;;;;;4116670;28;20298;-86
2023/05/24 13:13:39;;;;;;;;;;;18.60;53.50;;;;;;4144941;28;19948;-90
2023/05/24 13:16:06;;;;;;;;;;;18.60;54.30;;;;;;4130505;28;19922;-90
2023/05/24 13:18:27;;;;;;;;;;;18.60;54.00;;;;;;4134303;28;19918;-90
2023/05/24 13:20:49;;;;;;;;;;;18.70;54.20;;;;;;4122654;28;19918;-89
2023/05/24 13:23:10;;;;;;;;;;;18.70;52.10;;;;;;4120628;28;20279;-88
2023/05/24 13:25:31;;;;;;;;;;;18.80;51.70;;;;;;4117638;28;19918;-90
2023/05/24 13:27:52;;;;;;;;;;;18.80;53.00;;;;;;4129255;28;19930;-89
2023/05/24 13:30:13;;;;;;;;;;;18.90;53.50;;;;;;4122656;28;20200;-89
2023/05/24 13:32:34;;;;;;;;;;;18.90;51.80;;;;;;4128348;28;19922;-88
2023/05/24 13:34:55;;;;;;;;;;;19.00;53.30;;;;;;4129379;28;19972;-89
2023/05/24 13:37:16;;;;;;;;;;;19.10;53.90;;;;;;4122986;28;19922;-91
2023/05/24 13:39:37;;;;;;;;;;;19.10;51.90;;;;;;4131867;28;19929;-88
2023/05/24 13:41:59;;;;;;;;;;;19.20;52.50;;;;;;4127595;28;19921;-90
2023/05/24 13:44:20;;;;;;;;;;;19.20;51.50;;;;;;4116620;28;19929;-91
2023/05/24 13:46:41;;;;;;;;;;;19.30;52.60;;;;;;4128446;28;19929;-90
2023/05/24 13:49:03;;;;;;;;;;;19.30;53.50;;;;;;4124932;28;19914;-90
2023/05/24 13:51:25;;;;;;;;;;;19.30;53.70;;;;;;4121796;28;19918;-89
2023/05/24 13:53:46;;;;;;;;;;;19.20;53.90;;;;;;4120792;28;20385;-89
2023/05/24 13:56:07;;;;;;;;;;;19.30;53.90;;;;;;4120223;28;20184;-91
2023/05/24 13:58:28;;;;;;;;;;;19.20;53.60;;;;;;4123553;28;19921;-89
2023/05/24 14:00:52;;;;;;;;;;;19.20;53.70;;;;;;4115693;28;20017;-88
2023/05/24 14:03:14;;;;;;;;;;;19.10;53.20;;;;;;4118613;28;19976;-89
2023/05/24 14:05:35;;;;;;;;;;;19.10;53.40;;;;;;4124080;28;19922;-89
2023/05/24 14:07:58;;;;;;;;;;;19.10;54.30;;;;;;4119366;28;20028;-90
2023/05/24 14:10:20;;;;;;;;;;;19.10;54.20;;;;;;4123478;28;19925;-88
2023/05/24 14:12:41;;;;;;;;;;;19.20;54.70;;;;;;4135605;28;19925;-88